createdAt,value
2022-08-22T00:00:35.170Z,1.80
2022-08-22T00:03:12.458Z,1.50
2022-08-22T00:06:02.001Z,1.88
2022-08-22T00:08:37.444Z,1.77
2022-08-22T00:11:13.007Z,1.88
2022-08-22T00:13:46.444Z,1.58
2022-08-22T00:16:21.718Z,1.92
2022-08-22T00:19:00.783Z,1.77
2022-08-22T00:21:33.775Z,2.05
2022-08-22T00:24:14.532Z,1.92
2022-08-22T00:26:48.987Z,1.80
2022-08-22T00:29:22.709Z,1.60
2022-08-22T00:31:58.826Z,1.65
2022-08-22T00:34:35.817Z,1.80
2022-08-22T00:37:10.862Z,1.80
2022-08-22T00:39:45.319Z,1.67
2022-08-22T00:42:32.378Z,1.85
2022-08-22T00:45:25.749Z,1.80
2022-08-22T00:48:14.608Z,2.10
2022-08-22T00:51:10.338Z,1.95
2022-08-22T00:53:45.738Z,1.95
2022-08-22T00:56:53.047Z,1.77
2022-08-22T00:59:45.525Z,1.90
2022-08-22T01:02:29.796Z,1.95
2022-08-22T01:05:22.750Z,1.80
2022-08-22T01:08:06.088Z,2.00
2022-08-22T01:10:52.252Z,2.33
2022-08-22T01:13:40.273Z,2.20
2022-08-22T01:16:20.914Z,1.70
2022-08-22T01:19:30.502Z,1.90
2022-08-22T01:22:44.453Z,2.10
2022-08-22T01:25:49.421Z,2.08
2022-08-22T01:28:59.085Z,1.92
2022-08-22T01:31:53.497Z,1.92
2022-08-22T01:35:10.593Z,1.88
2022-08-22T01:37:58.823Z,2.10
2022-08-22T01:41:02.550Z,2.28
2022-08-22T01:43:59.791Z,2.15
2022-08-22T01:46:37.333Z,2.20
2022-08-22T01:49:14.688Z,2.10
2022-08-22T01:51:51.699Z,2.25
2022-08-22T01:54:35.737Z,2.10
2022-08-22T01:57:08.894Z,2.00
2022-08-22T01:59:42.894Z,2.10
2022-08-22T02:02:47.868Z,2.20
2022-08-22T02:05:27.541Z,2.08
2022-08-22T02:08:02.204Z,2.28
2022-08-22T02:10:46.901Z,2.38
2022-08-22T02:13:34.690Z,2.10
2022-08-22T02:16:10.768Z,2.13
2022-08-22T02:18:57.522Z,1.95
2022-08-22T02:21:40.541Z,2.40
2022-08-22T02:24:23.605Z,2.30
2022-08-22T02:27:04.456Z,2.15
2022-08-22T02:29:40.288Z,2.55
2022-08-22T02:32:18.268Z,2.03
2022-08-22T02:35:01.201Z,2.53
2022-08-22T02:37:37.440Z,2.05
2022-08-22T02:40:15.604Z,2.17
2022-08-22T02:42:49.541Z,2.20
2022-08-22T02:45:27.441Z,2.30
2022-08-22T02:48:04.454Z,2.30
2022-08-22T02:50:40.884Z,2.45
2022-08-22T02:53:15.417Z,2.40
2022-08-22T02:55:53.257Z,2.33
2022-08-22T02:58:31.433Z,2.53
2022-08-22T03:01:33.953Z,2.50
2022-08-22T03:04:25.060Z,2.28
2022-08-22T03:07:14.244Z,2.33
2022-08-22T03:09:48.565Z,2.35
2022-08-22T03:12:28.557Z,2.70
2022-08-22T03:15:06.848Z,2.10
2022-08-22T03:17:41.697Z,2.40
2022-08-22T03:20:14.711Z,2.15
2022-08-22T03:22:49.453Z,3.00
2022-08-22T03:25:27.047Z,3.05
2022-08-22T03:28:01.669Z,2.50
2022-08-22T03:30:35.414Z,2.33
2022-08-22T03:33:17.882Z,2.58
2022-08-22T03:36:07.365Z,2.40
2022-08-22T03:38:52.619Z,2.60
2022-08-22T03:41:46.825Z,2.75
2022-08-22T03:44:51.312Z,2.80
2022-08-22T03:47:59.006Z,2.28
2022-08-22T03:51:10.520Z,2.63
2022-08-22T03:54:30.369Z,2.80
2022-08-22T03:57:37.373Z,2.58
2022-08-22T04:00:22.368Z,2.63
2022-08-22T04:03:31.801Z,2.50
2022-08-22T04:06:24.892Z,2.95
2022-08-22T04:09:18.121Z,2.47
2022-08-22T04:12:22.236Z,2.75
2022-08-22T04:15:24.353Z,2.70
2022-08-22T04:18:36.221Z,2.95
2022-08-22T04:21:35.374Z,2.88
2022-08-22T04:24:26.956Z,2.83
2022-08-22T04:27:00.840Z,2.42
2022-08-22T04:29:36.395Z,2.50
2022-08-22T04:32:14.022Z,2.60
2022-08-22T04:34:49.675Z,2.90
2022-08-22T04:37:23.518Z,2.60
2022-08-22T04:39:58.231Z,2.63
2022-08-22T04:42:35.657Z,3.40
2022-08-22T04:45:10.365Z,2.88
2022-08-22T04:47:42.634Z,3.10
2022-08-22T04:50:22.618Z,3.17
2022-08-22T04:53:29.004Z,3.00
2022-08-22T04:56:07.255Z,2.83
2022-08-22T04:58:46.900Z,3.13
2022-08-22T05:01:19.127Z,2.67
2022-08-22T05:03:54.773Z,3.28
2022-08-22T05:06:28.581Z,3.15
2022-08-22T05:09:01.625Z,3.20
2022-08-22T05:11:32.505Z,2.90
2022-08-22T05:14:05.084Z,2.92
2022-08-22T05:16:37.990Z,3.33
2022-08-22T05:19:14.455Z,3.15
2022-08-22T05:21:49.544Z,3.08
2022-08-22T05:24:23.546Z,3.38
2022-08-22T05:27:01.548Z,3.40
2022-08-22T05:29:32.754Z,3.47
2022-08-22T05:32:05.617Z,3.20
2022-08-22T05:34:38.633Z,3.10
2022-08-22T05:37:15.098Z,4.05
2022-08-22T05:39:48.436Z,3.45
2022-08-22T05:42:29.215Z,3.80
2022-08-22T05:44:58.428Z,3.90
2022-08-22T05:47:34.896Z,4.20
2022-08-22T05:50:08.658Z,4.47
2022-08-22T05:52:55.920Z,4.65
2022-08-22T05:55:29.104Z,4.28
2022-08-22T05:58:19.335Z,4.10
2022-08-22T06:00:54.549Z,3.70
2022-08-22T06:03:31.504Z,3.90
2022-08-22T06:06:14.921Z,4.00
2022-08-22T06:08:48.144Z,4.28
2022-08-22T06:11:20.343Z,4.10
2022-08-22T06:13:59.024Z,4.30
2022-08-22T06:16:39.558Z,3.85
2022-08-22T06:19:19.666Z,4.28
2022-08-22T06:21:51.767Z,4.70
2022-08-22T06:24:25.735Z,4.38
2022-08-22T06:26:57.514Z,4.45
2022-08-22T06:29:34.933Z,4.63
2022-08-22T06:32:10.383Z,3.88
2022-08-22T06:34:43.202Z,4.32
2022-08-22T06:37:18.222Z,3.92
2022-08-22T06:39:53.373Z,3.83
2022-08-22T06:42:27.716Z,4.07
2022-08-22T06:45:01.407Z,3.75
2022-08-22T06:47:33.149Z,4.57
2022-08-22T06:50:06.455Z,5.00
2022-08-22T06:52:54.450Z,4.53
2022-08-22T06:55:26.286Z,4.53
2022-08-22T06:57:58.717Z,4.38
2022-08-22T07:00:29.240Z,4.80
2022-08-22T07:03:01.605Z,4.78
2022-08-22T07:05:37.112Z,5.00
2022-08-22T07:08:08.457Z,4.97
2022-08-22T07:10:42.319Z,4.20
2022-08-22T07:13:15.907Z,4.05
2022-08-22T07:15:44.977Z,4.88
2022-08-22T07:18:19.400Z,4.05
2022-08-22T07:20:55.094Z,4.40
2022-08-22T07:23:33.187Z,4.25
2022-08-22T07:26:15.379Z,4.70
2022-08-22T07:28:50.853Z,3.88
2022-08-22T07:31:30.898Z,3.28
2022-08-22T07:34:13.353Z,3.15
2022-08-22T07:36:48.070Z,3.45
2022-08-22T07:39:26.540Z,3.85
2022-08-22T07:42:08.028Z,3.47
2022-08-22T07:44:47.601Z,3.42
2022-08-22T07:47:26.305Z,2.75
2022-08-22T07:50:04.011Z,3.47
2022-08-22T07:52:39.894Z,3.95
2022-08-22T07:55:17.670Z,3.80
2022-08-22T07:57:54.430Z,3.25
2022-08-22T08:00:25.051Z,2.90
2022-08-22T08:02:58.273Z,3.05
2022-08-22T08:05:30.100Z,3.15
2022-08-22T08:07:59.664Z,3.28
2022-08-22T08:10:32.578Z,2.85
2022-08-22T08:13:10.045Z,2.90
2022-08-22T08:15:40.126Z,2.83
2022-08-22T08:18:13.547Z,3.00
2022-08-22T08:20:42.609Z,4.03
2022-08-22T08:23:19.461Z,3.10
2022-08-22T08:26:02.478Z,3.13
2022-08-22T08:28:34.764Z,2.20
2022-08-22T08:31:09.272Z,2.30
2022-08-22T08:33:42.778Z,2.72
2022-08-22T08:36:27.753Z,2.85
2022-08-22T08:39:01.363Z,2.40
2022-08-22T08:41:45.849Z,2.13
2022-08-22T08:44:27.420Z,2.33
2022-08-22T08:47:22.906Z,2.30
2022-08-22T08:50:22.216Z,2.25
2022-08-22T08:53:26.305Z,2.40
2022-08-22T08:56:00.743Z,1.98
2022-08-22T08:58:46.600Z,2.10
2022-08-22T09:01:37.444Z,1.92
2022-08-22T09:04:32.500Z,2.05
2022-08-22T09:07:30.523Z,2.10
2022-08-22T09:10:22.442Z,2.28
2022-08-22T09:13:18.251Z,2.13
2022-08-22T09:16:04.843Z,2.22
2022-08-22T09:19:00.181Z,2.55
2022-08-22T09:21:47.967Z,2.40
2022-08-22T09:24:55.399Z,2.85
2022-08-22T09:27:33.607Z,2.22
2022-08-22T09:30:11.641Z,2.58
2022-08-22T09:32:48.478Z,2.00
2022-08-22T09:35:25.853Z,2.05
2022-08-22T09:38:25.654Z,2.40
2022-08-22T09:41:04.494Z,1.92
2022-08-22T09:43:39.578Z,2.28
2022-08-22T09:46:19.713Z,1.90
2022-08-22T09:49:06.606Z,2.20
2022-08-22T09:51:46.126Z,2.08
2022-08-22T09:54:23.214Z,2.10
2022-08-22T09:57:04.315Z,2.10
2022-08-22T09:59:51.727Z,2.47
2022-08-22T10:02:30.293Z,2.10
2022-08-22T10:05:07.942Z,2.10
2022-08-22T10:07:56.238Z,1.85
2022-08-22T10:10:36.721Z,2.20
2022-08-22T10:13:19.004Z,1.98
2022-08-22T10:15:54.826Z,1.95
2022-08-22T10:18:37.192Z,2.10
2022-08-22T10:21:19.057Z,2.08
2022-08-22T10:23:55.018Z,2.10
2022-08-22T10:26:37.856Z,2.33
2022-08-22T10:29:18.061Z,2.08
2022-08-22T10:31:58.615Z,2.17
2022-08-22T10:34:33.923Z,2.00
2022-08-22T10:37:11.802Z,2.42
2022-08-22T10:39:47.712Z,2.55
2022-08-22T10:42:28.160Z,1.95
2022-08-22T10:45:23.571Z,2.05
2022-08-22T10:48:36.031Z,2.08
2022-08-22T10:51:15.303Z,2.20
2022-08-22T10:54:20.003Z,2.30
2022-08-22T10:56:56.533Z,2.60
2022-08-22T10:59:39.677Z,1.90
2022-08-22T11:02:34.625Z,2.20
2022-08-22T11:05:30.571Z,2.42
2022-08-22T11:08:29.768Z,2.13
2022-08-22T11:11:09.348Z,1.70
2022-08-22T11:13:49.739Z,2.08
2022-08-22T11:16:36.790Z,2.05
2022-08-22T11:19:17.609Z,2.13
2022-08-22T11:21:58.810Z,2.00
2022-08-22T11:25:04.969Z,2.17
2022-08-22T11:27:44.353Z,2.20
2022-08-22T11:30:18.713Z,2.30
2022-08-22T11:33:11.413Z,2.40
2022-08-22T11:35:46.157Z,2.00
2022-08-22T11:38:32.454Z,2.17
2022-08-22T11:41:06.598Z,2.20
2022-08-22T11:43:45.238Z,2.78
2022-08-22T11:46:22.836Z,2.38
2022-08-22T11:49:06.337Z,2.53
2022-08-22T11:52:09.218Z,2.28
2022-08-22T11:54:56.798Z,2.13
2022-08-22T11:57:33.452Z,2.33
2022-08-22T12:00:15.626Z,2.30
2022-08-22T12:03:01.090Z,1.88
2022-08-22T12:05:34.625Z,2.30
2022-08-22T12:08:12.322Z,2.17
2022-08-22T12:10:48.993Z,2.30
2022-08-22T12:13:34.932Z,2.30
2022-08-22T12:16:15.103Z,1.95
2022-08-22T12:18:52.875Z,2.05
2022-08-22T12:21:51.673Z,2.20
2022-08-22T12:24:43.733Z,2.28
2022-08-22T12:27:29.494Z,2.28
2022-08-22T12:30:14.388Z,2.00
2022-08-22T12:33:18.322Z,2.50
2022-08-22T12:36:04.000Z,2.03
2022-08-22T12:38:48.200Z,1.85
2022-08-22T12:41:40.037Z,2.17
2022-08-22T12:44:28.425Z,2.08
2022-08-22T12:47:10.480Z,2.58
2022-08-22T12:49:56.510Z,2.20
2022-08-22T12:52:38.425Z,1.98
2022-08-22T12:55:29.805Z,2.70
2022-08-22T12:58:11.893Z,1.95
2022-08-22T13:00:45.242Z,2.35
2022-08-22T13:03:24.245Z,2.17
2022-08-22T13:05:57.112Z,2.17
2022-08-22T13:08:35.668Z,2.13
2022-08-22T13:11:12.480Z,2.10
2022-08-22T13:13:56.622Z,2.22
2022-08-22T13:16:36.415Z,2.00
2022-08-22T13:19:13.422Z,2.25
2022-08-22T13:21:48.530Z,2.35
2022-08-22T13:24:38.558Z,2.35
2022-08-22T13:27:15.265Z,1.90
2022-08-22T13:29:49.279Z,2.08
2022-08-22T13:32:26.269Z,2.42
2022-08-22T13:34:58.760Z,2.30
2022-08-22T13:37:32.694Z,2.25
2022-08-22T13:40:07.829Z,2.10
2022-08-22T13:42:45.439Z,2.47
2022-08-22T13:45:24.034Z,2.42
2022-08-22T13:47:57.217Z,2.20
2022-08-22T13:50:28.721Z,2.40
2022-08-22T13:53:10.228Z,2.78
2022-08-22T13:55:48.923Z,2.20
2022-08-22T13:58:29.094Z,2.75
2022-08-22T14:01:16.294Z,2.70
2022-08-22T14:03:50.956Z,2.03
2022-08-22T14:06:41.366Z,2.13
2022-08-22T14:09:32.012Z,2.40
2022-08-22T14:12:11.791Z,2.38
2022-08-22T14:14:46.225Z,2.13
2022-08-22T14:17:18.117Z,2.05
2022-08-22T14:19:58.858Z,2.30
2022-08-22T14:22:34.936Z,2.25
2022-08-22T14:25:09.128Z,2.25
2022-08-22T14:27:57.649Z,2.10
2022-08-22T14:30:29.994Z,2.25
2022-08-22T14:33:03.061Z,2.53
2022-08-22T14:35:37.618Z,2.50
2022-08-22T14:38:27.326Z,2.03
2022-08-22T14:41:05.386Z,2.33
2022-08-22T14:43:56.812Z,2.38
2022-08-22T14:46:29.886Z,2.25
2022-08-22T14:49:28.807Z,2.47
2022-08-22T14:52:05.638Z,2.63
2022-08-22T14:54:34.997Z,2.67
2022-08-22T14:57:10.372Z,2.58
2022-08-22T14:59:50.336Z,2.42
2022-08-22T15:02:28.975Z,2.50
2022-08-22T15:05:01.966Z,2.13
2022-08-22T15:07:37.590Z,2.40
2022-08-22T15:10:11.962Z,1.88
2022-08-22T15:12:48.257Z,2.22
2022-08-22T15:15:41.077Z,2.42
2022-08-22T15:18:21.505Z,1.90
2022-08-22T15:21:02.959Z,2.38
2022-08-22T15:23:45.340Z,2.33
2022-08-22T15:26:23.886Z,2.25
2022-08-22T15:29:04.347Z,1.90
2022-08-22T15:31:35.114Z,2.75
2022-08-22T15:34:11.296Z,2.10
2022-08-22T15:37:09.861Z,2.28
2022-08-22T15:40:02.722Z,2.10
2022-08-22T15:42:38.234Z,2.42
2022-08-22T15:45:08.393Z,2.50
2022-08-22T15:47:41.432Z,2.58
2022-08-22T15:50:15.346Z,2.50
2022-08-22T15:53:09.966Z,2.65
2022-08-22T15:55:39.059Z,2.25
2022-08-22T15:58:12.910Z,2.35
2022-08-22T16:00:45.488Z,2.20
2022-08-22T16:03:27.146Z,2.28
2022-08-22T16:05:58.908Z,2.00
2022-08-22T16:08:33.282Z,2.30
2022-08-22T16:11:28.516Z,2.42
2022-08-22T16:14:21.401Z,2.03
2022-08-22T16:17:03.144Z,2.50
2022-08-22T16:19:35.388Z,2.22
2022-08-22T16:22:14.412Z,2.17
2022-08-22T16:25:01.686Z,2.13
2022-08-22T16:27:31.112Z,2.13
2022-08-22T16:30:15.111Z,2.15
2022-08-22T16:32:54.305Z,2.25
2022-08-22T16:36:00.188Z,2.10
2022-08-22T16:38:41.049Z,2.28
2022-08-22T16:41:28.246Z,2.10
2022-08-22T16:44:34.496Z,2.38
2022-08-22T16:47:12.697Z,2.17
2022-08-22T16:50:01.161Z,2.35
2022-08-22T16:52:57.633Z,2.50
2022-08-22T16:55:49.403Z,2.05
2022-08-22T16:58:56.566Z,2.20
2022-08-22T17:01:41.104Z,2.33
2022-08-22T17:04:17.897Z,2.60
2022-08-22T17:07:03.202Z,2.25
2022-08-22T17:09:47.748Z,2.40
2022-08-22T17:12:27.462Z,2.42
2022-08-22T17:15:07.798Z,2.28
2022-08-22T17:17:50.468Z,2.05
2022-08-22T17:20:26.134Z,2.22
2022-08-22T17:23:00.097Z,2.95
2022-08-22T17:25:35.649Z,2.30
2022-08-22T17:28:17.319Z,2.63
2022-08-22T17:30:57.711Z,2.08
2022-08-22T17:33:56.144Z,2.05
2022-08-22T17:36:34.346Z,2.65
2022-08-22T17:39:15.387Z,2.53
2022-08-22T17:41:51.141Z,2.20
2022-08-22T17:44:29.509Z,2.25
2022-08-22T17:47:07.165Z,2.28
2022-08-22T17:49:54.621Z,2.45
2022-08-22T17:52:30.809Z,2.50
2022-08-22T17:55:06.100Z,2.10
2022-08-22T17:57:39.197Z,2.83
2022-08-22T18:00:18.205Z,2.40
2022-08-22T18:02:54.930Z,2.95
2022-08-22T18:05:28.424Z,2.55
2022-08-22T18:08:06.465Z,2.47
2022-08-22T18:10:45.382Z,2.55
2022-08-22T18:13:34.614Z,2.50
2022-08-22T18:16:12.768Z,2.22
2022-08-22T18:18:50.544Z,2.40
2022-08-22T18:21:27.421Z,2.15
2022-08-22T18:23:58.959Z,2.38
2022-08-22T18:26:33.733Z,2.30
2022-08-22T18:29:11.464Z,2.35
2022-08-22T18:31:50.094Z,2.40
2022-08-22T18:34:29.356Z,2.40
2022-08-22T18:37:02.987Z,2.10
2022-08-22T18:39:38.569Z,2.40
2022-08-22T18:42:19.172Z,2.55
2022-08-22T18:44:47.930Z,2.28
2022-08-22T18:47:23.013Z,2.50
2022-08-22T18:49:54.897Z,2.40
2022-08-22T18:52:36.254Z,2.80
2022-08-22T18:55:19.062Z,2.55
2022-08-22T18:58:03.955Z,2.30
2022-08-22T19:00:52.827Z,2.42
2022-08-22T19:03:39.521Z,2.53
2022-08-22T19:06:38.316Z,2.88
2022-08-22T19:09:32.756Z,2.30
2022-08-22T19:12:12.585Z,3.00
2022-08-22T19:15:21.753Z,2.58
2022-08-22T19:18:20.961Z,2.42
2022-08-22T19:21:40.653Z,2.15
2022-08-22T19:24:13.788Z,2.50
2022-08-22T19:26:44.858Z,2.70
2022-08-22T19:29:55.344Z,2.90
2022-08-22T19:33:00.277Z,2.97
2022-08-22T19:35:37.290Z,2.92
2022-08-22T19:38:08.959Z,2.70
2022-08-22T19:40:53.455Z,2.25
2022-08-22T19:43:32.143Z,2.67
2022-08-22T19:46:04.758Z,2.65
2022-08-22T19:48:44.461Z,2.95
2022-08-22T19:51:25.875Z,3.20
2022-08-22T19:54:16.407Z,2.83
2022-08-22T19:57:10.714Z,2.85
2022-08-22T19:59:51.114Z,2.70
2022-08-22T20:02:32.086Z,3.25
2022-08-22T20:05:14.375Z,3.03
2022-08-22T20:08:08.806Z,2.70
2022-08-22T20:10:49.504Z,3.00
2022-08-22T20:13:22.126Z,3.20
2022-08-22T20:16:17.130Z,3.10
2022-08-22T20:19:15.294Z,3.00
2022-08-22T20:21:49.926Z,3.33
2022-08-22T20:24:25.333Z,2.85
2022-08-22T20:27:13.399Z,2.95
2022-08-22T20:29:49.285Z,3.15
2022-08-22T20:32:21.240Z,3.58
2022-08-22T20:34:56.847Z,3.03
2022-08-22T20:37:50.357Z,2.70
2022-08-22T20:40:54.496Z,2.90
2022-08-22T20:43:23.775Z,3.17
2022-08-22T20:46:00.498Z,2.97
2022-08-22T20:48:37.294Z,2.58
2022-08-22T20:51:07.499Z,2.40
2022-08-22T20:53:37.180Z,2.88
2022-08-22T20:56:08.039Z,2.85
2022-08-22T20:58:43.803Z,3.30
2022-08-22T21:01:14.182Z,3.05
2022-08-22T21:03:46.497Z,3.17
2022-08-22T21:06:17.855Z,2.90
2022-08-22T21:09:07.981Z,2.70
2022-08-22T21:11:41.482Z,2.88
2022-08-22T21:14:21.910Z,3.00
2022-08-22T21:16:51.084Z,2.70
2022-08-22T21:19:21.557Z,2.90
2022-08-22T21:21:50.219Z,3.08
2022-08-22T21:24:19.216Z,3.33
2022-08-22T21:26:51.291Z,2.97
2022-08-22T21:29:26.485Z,3.10
2022-08-22T21:32:04.890Z,2.92
2022-08-22T21:34:37.785Z,3.15
2022-08-22T21:37:09.517Z,2.90
2022-08-22T21:39:44.815Z,2.90
2022-08-22T21:42:23.701Z,2.72
2022-08-22T21:44:59.562Z,3.28
2022-08-22T21:47:32.184Z,3.13
2022-08-22T21:50:04.823Z,3.42
2022-08-22T21:52:35.337Z,3.25
2022-08-22T21:55:25.364Z,2.92
2022-08-22T21:58:05.443Z,2.75
2022-08-22T22:00:49.362Z,3.28
2022-08-22T22:03:20.465Z,3.08
2022-08-22T22:05:50.019Z,2.67
2022-08-22T22:08:18.861Z,3.00
2022-08-22T22:10:48.973Z,2.67
2022-08-22T22:13:20.057Z,3.20
2022-08-22T22:15:54.670Z,3.08
2022-08-22T22:18:28.327Z,2.65
2022-08-22T22:20:58.155Z,3.10
2022-08-22T22:23:28.082Z,3.15
2022-08-22T22:25:58.784Z,2.92
2022-08-22T22:28:33.214Z,3.38
2022-08-22T22:31:03.575Z,2.83
2022-08-22T22:33:40.686Z,3.25
2022-08-22T22:36:13.881Z,3.00
2022-08-22T22:38:43.172Z,3.25
2022-08-22T22:41:13.217Z,2.80
2022-08-22T22:43:41.820Z,3.38
2022-08-22T22:46:11.801Z,3.08
2022-08-22T22:48:40.456Z,2.95
2022-08-22T22:51:10.563Z,2.70
2022-08-22T22:53:43.635Z,2.80
2022-08-22T22:56:15.744Z,3.15
2022-08-22T22:58:45.146Z,3.40
2022-08-22T23:01:19.839Z,2.83
2022-08-22T23:03:49.565Z,2.67
2022-08-22T23:06:21.019Z,3.20
2022-08-22T23:08:50.517Z,2.55
2022-08-22T23:11:21.034Z,3.13
2022-08-22T23:13:50.144Z,3.88
2022-08-22T23:16:23.593Z,2.95
2022-08-22T23:18:52.205Z,2.92
2022-08-22T23:21:23.088Z,2.85
2022-08-22T23:23:52.469Z,2.97
2022-08-22T23:26:21.281Z,3.25
2022-08-22T23:28:50.224Z,3.20
2022-08-22T23:31:28.899Z,3.47
2022-08-22T23:33:57.982Z,3.08
2022-08-22T23:36:26.625Z,3.38
2022-08-22T23:38:55.285Z,3.50
2022-08-22T23:41:24.125Z,2.88
2022-08-22T23:43:54.821Z,3.15
2022-08-22T23:46:27.060Z,3.28
2022-08-22T23:48:55.941Z,3.50
2022-08-22T23:51:26.500Z,2.85
2022-08-22T23:53:58.336Z,3.08
2022-08-22T23:56:30.080Z,3.50
2022-08-22T23:58:59.631Z,3.13
